Time;durP1;ratioP1;P1;durP2;ratioP2;P2;SDS_P1;SDS_P2;PMS_P1;PMS_P2;Temp;Humidity;BMP_temperature;BMP_pressure;BME280_temperature;BME280_humidity;BME280_pressure;Samples;Min_cycle;Max_cycle;Signal;HPM_P1;HPM_P2
2022/05/09 00:00:20;;;;;;;9.68;5.68;;;;;;;11.56;70.06;101891.03;4977159;28;20189;-80
2022/05/09 00:09:34;;;;;;;11.40;5.55;;;;;;;11.42;70.35;101888.75;4907641;28;20088;-81
2022/05/09 00:12:03;;;;;;;8.55;5.22;;;;;;;11.34;71.04;101885.16;4980519;28;20050;-81
2022/05/09 00:14:31;;;;;;;13.50;6.05;;;;;;;11.30;70.92;101885.41;4983588;28;20286;-81
2022/05/09 00:17:02;;;;;;;13.32;6.10;;;;;;;11.25;71.21;101879.72;4985434;28;20051;-80
2022/05/09 00:19:29;;;;;;;8.25;5.80;;;;;;;11.26;71.82;101889.25;4985000;28;20055;-79
2022/05/09 00:21:56;;;;;;;11.20;6.10;;;;;;;11.23;71.48;101884.25;4984998;28;20054;-80
2022/05/09 00:24:24;;;;;;;8.93;5.70;;;;;;;11.21;71.89;101894.03;4984403;28;20066;-80
2022/05/09 00:26:52;;;;;;;11.38;6.13;;;;;;;11.19;71.63;101888.09;4981164;28;20053;-80
2022/05/09 00:29:20;;;;;;;11.20;5.80;;;;;;;11.21;71.62;101890.59;4981962;28;20138;-80
2022/05/09 00:31:49;;;;;;;10.75;6.00;;;;;;;11.15;72.13;101885.88;4980855;28;20077;-80
2022/05/09 00:34:18;;;;;;;11.15;5.90;;;;;;;11.14;72.13;101879.78;4980376;28;20397;-80
2022/05/09 00:36:47;;;;;;;12.45;5.95;;;;;;;11.08;72.11;101877.69;4977999;28;20051;-80
2022/05/09 00:39:14;;;;;;;10.10;5.72;;;;;;;11.13;72.57;101883.38;4976876;28;20133;-79
2022/05/09 00:41:42;;;;;;;12.45;6.13;;;;;;;11.02;72.73;101872.97;4978099;28;20047;-79
2022/05/09 00:44:11;;;;;;;13.60;6.40;;;;;;;10.98;73.05;101874.16;4977890;28;20055;-78
2022/05/09 00:46:39;;;;;;;10.70;6.10;;;;;;;10.93;73.25;101890.25;4976735;28;20573;-79
2022/05/09 00:49:23;;;;;;;11.55;6.25;;;;;;;10.90;73.40;101885.28;4976933;28;20125;-79
2022/05/09 00:51:55;;;;;;;12.25;6.78;;;;;;;10.84;73.45;101875.34;4977455;28;20057;-79
2022/05/09 00:54:24;;;;;;;13.87;6.73;;;;;;;10.84;73.96;101877.97;4977819;28;20047;-80
2022/05/09 00:57:00;;;;;;;11.65;7.07;;;;;;;10.76;74.20;101874.31;4977511;28;20479;-80
2022/05/09 00:59:46;;;;;;;11.93;6.60;;;;;;;10.74;73.97;101871.81;4975648;28;20450;-81
2022/05/09 01:02:19;;;;;;;16.70;6.80;;;;;;;10.62;74.38;101852.72;4976597;28;20077;-81
2022/05/09 01:04:54;;;;;;;11.50;6.68;;;;;;;10.83;74.23;101865.00;4976630;28;20142;-79
2022/05/09 01:07:21;;;;;;;12.85;6.85;;;;;;;10.76;74.40;101859.44;4975611;28;20046;-79
2022/05/09 01:09:48;;;;;;;11.98;6.57;;;;;;;10.77;74.68;101861.09;4975553;28;20061;-80
2022/05/09 01:12:20;;;;;;;11.32;7.20;;;;;;;10.75;75.04;101860.41;4978883;28;20520;-79
2022/05/09 01:14:47;;;;;;;13.23;7.18;;;;;;;10.83;74.33;101863.22;4980473;28;20058;-78
2022/05/09 01:17:15;;;;;;;11.75;7.30;;;;;;;10.84;74.81;101862.25;4979511;28;20106;-79
2022/05/09 01:19:47;;;;;;;12.82;6.47;;;;;;;10.71;74.36;101845.06;4984574;28;20059;-80
2022/05/09 01:22:23;;;;;;;13.98;7.05;;;;;;;10.76;74.56;101854.19;4978635;28;20600;-81
2022/05/09 01:24:54;;;;;;;12.80;7.43;;;;;;;10.76;75.42;101863.84;4978094;28;20055;-81
2022/05/09 01:27:27;;;;;;;8.30;6.57;;;;;;;10.76;74.90;101862.06;4977968;28;20047;-81
2022/05/09 01:29:56;;;;;;;;;;;;;;;10.77;75.05;101863.72;4980072;28;20051;-81
2022/05/09 01:32:30;;;;;;;10.40;6.22;;;;;;;10.69;75.54;101868.75;4981540;28;19998;-80
2022/05/09 01:35:07;;;;;;;11.80;6.68;;;;;;;10.39;76.16;101853.78;4980145;28;20051;-81
2022/05/09 01:37:39;;;;;;;8.85;6.65;;;;;;;10.34;76.98;101857.72;4978031;28;20134;-80
2022/05/09 01:40:06;;;;;;;13.10;7.05;;;;;;;10.15;77.26;101859.16;4978454;28;20055;-79
2022/05/09 01:42:35;;;;;;;10.82;7.68;;;;;;;10.19;77.26;101865.84;4978519;28;20075;-79
2022/05/09 01:45:01;;;;;;;7.93;6.65;;;;;;;9.98;77.91;101857.06;4977296;28;20054;-79
2022/05/09 01:50:12;;;;;;;9.88;6.63;;;;;;;9.90;78.47;101859.50;4977882;28;20089;-80
2022/05/09 01:52:40;;;;;;;10.15;6.82;;;;;;;9.91;78.25;101866.38;4977738;28;20051;-79
2022/05/09 01:55:09;;;;;;;12.20;7.28;;;;;;;9.88;78.04;101866.63;4978139;28;20174;-80
2022/05/09 01:57:36;;;;;;;12.18;7.47;;;;;;;9.85;78.32;101862.47;4977829;28;20057;-80
2022/05/09 02:00:05;;;;;;;11.50;7.35;;;;;;;9.94;78.21;101866.94;4977070;28;20079;-81
2022/05/09 02:02:32;;;;;;;7.90;6.82;;;;;;;9.93;78.13;101872.28;4977303;28;20062;-80
2022/05/09 02:04:58;;;;;;;11.55;7.00;;;;;;;9.95;77.43;101867.78;4977541;28;20050;-80
2022/05/09 02:07:26;;;;;;;12.85;6.85;;;;;;;10.03;77.11;101862.75;4977483;28;20061;-80
2022/05/09 02:09:54;;;;;;;10.75;7.30;;;;;;;9.92;77.30;101868.03;4977212;28;20360;-79
2022/05/09 02:12:22;;;;;;;13.13;7.68;;;;;;;9.90;77.16;101875.16;4977699;28;20105;-80
2022/05/09 02:14:49;;;;;;;11.18;6.57;;;;;;;9.81;77.03;101868.88;4977508;28;20438;-81
2022/05/09 02:17:17;;;;;;;13.38;6.90;;;;;;;9.84;77.21;101880.88;4977069;28;20057;-80
2022/05/09 02:19:44;;;;;;;9.65;6.35;;;;;;;9.81;76.92;101870.66;4976901;28;20082;-79
2022/05/09 02:22:18;;;;;;;9.48;7.13;;;;;;;9.97;76.49;101871.94;4977186;28;20042;-80
2022/05/09 02:27:53;;;;;;;10.93;6.75;;;;;;;9.81;76.49;101850.59;4975966;28;20086;-78
2022/05/09 02:30:20;;;;;;;11.38;7.15;;;;;;;9.90;76.77;101870.78;4976863;28;20467;-81
2022/05/09 02:32:46;;;;;;;11.65;6.82;;;;;;;9.85;76.34;101866.84;4976095;28;20058;-80
2022/05/09 02:35:13;;;;;;;12.18;7.25;;;;;;;9.80;76.53;101864.59;4976816;28;20078;-79
2022/05/09 02:37:40;;;;;;;9.02;6.57;;;;;;;9.78;76.72;101869.13;4988781;23;20153;-78
2022/05/09 02:40:09;;;;;;;10.02;7.22;;;;;;;9.81;77.02;101870.66;4976462;28;20055;-78
2022/05/09 02:42:35;;;;;;;11.65;6.68;;;;;;;9.84;77.13;101854.75;4978912;28;20152;-77
2022/05/09 02:45:02;;;;;;;13.90;6.90;;;;;;;9.86;77.42;101858.91;4978612;28;20061;-79
2022/05/09 02:47:29;;;;;;;12.88;7.90;;;;;;;9.79;77.46;101856.88;4969584;28;20082;-78
2022/05/09 02:49:56;;;;;;;10.82;6.75;;;;;;;9.78;77.28;101855.22;4958703;28;20098;-78
2022/05/09 02:52:22;;;;;;;10.85;7.28;;;;;;;9.72;77.81;101866.16;4959591;28;20073;-79
2022/05/09 02:54:49;;;;;;;10.25;7.40;;;;;;;9.65;78.14;101865.81;4958699;28;20058;-78
2022/05/09 02:57:17;;;;;;;10.63;7.15;;;;;;;9.60;78.31;101863.53;4959078;28;20059;-78
2022/05/09 02:59:44;;;;;;;10.85;6.90;;;;;;;9.54;78.96;101857.97;4959474;28;20082;-79
2022/05/09 03:02:11;;;;;;;12.73;7.05;;;;;;;9.49;78.85;101860.09;4960270;28;20070;-79
2022/05/09 03:04:39;;;;;;;12.60;7.68;;;;;;;9.45;79.29;101859.50;4958318;28;20142;-79
2022/05/09 03:07:06;;;;;;;11.13;7.10;;;;;;;9.55;78.57;101855.22;4957985;28;20047;-77
2022/05/09 03:09:32;;;;;;;10.93;7.53;;;;;;;9.46;78.89;101855.94;4958663;28;20090;-79
2022/05/09 03:11:59;;;;;;;15.30;8.05;;;;;;;9.42;79.27;101849.31;4959653;28;20149;-78
2022/05/09 03:14:27;;;;;;;13.05;8.43;;;;;;;9.44;78.87;101863.09;4959644;28;20055;-79
2022/05/09 03:16:54;;;;;;;14.43;7.47;;;;;;;9.42;79.40;101853.72;4959100;28;20082;-78
2022/05/09 03:19:21;;;;;;;12.98;8.07;;;;;;;9.37;79.03;101861.91;4957684;28;20047;-77
2022/05/09 03:21:50;;;;;;;15.80;7.32;;;;;;;9.47;78.98;101857.59;4958061;28;20071;-79
2022/05/09 03:24:16;;;;;;;16.15;7.53;;;;;;;9.36;79.04;101860.22;4959090;28;20463;-78
2022/05/09 03:26:43;;;;;;;9.10;7.22;;;;;;;9.31;79.32;101859.75;4959927;28;20184;-79
2022/05/09 03:29:10;;;;;;;10.10;7.57;;;;;;;9.28;79.73;101854.75;4959577;28;20130;-79
2022/05/09 03:31:37;;;;;;;14.48;8.20;;;;;;;9.27;79.68;101858.31;4960216;28;20111;-79
2022/05/09 03:34:04;;;;;;;11.57;7.93;;;;;;;9.34;79.96;101849.06;4959689;28;20065;-79
2022/05/09 03:36:31;;;;;;;12.05;7.57;;;;;;;9.35;80.07;101847.28;4958115;28;20086;-78
2022/05/09 03:38:57;;;;;;;10.70;7.45;;;;;;;9.30;80.08;101852.88;4958108;28;20057;-79
2022/05/09 03:41:24;;;;;;;15.43;7.43;;;;;;;9.24;80.21;101853.34;4959378;28;20061;-78
2022/05/09 03:43:51;;;;;;;13.07;7.28;;;;;;;9.23;79.95;101856.91;4959642;28;20075;-77
2022/05/09 03:46:18;;;;;;;9.45;7.32;;;;;;;9.22;80.51;101852.63;4958621;28;20066;-79
2022/05/09 03:48:46;;;;;;;12.85;7.35;;;;;;;9.21;79.88;101857.00;4958885;28;20067;-79
2022/05/09 03:51:13;;;;;;;13.32;8.63;;;;;;;9.26;80.00;101864.50;4959002;28;20083;-79
2022/05/09 03:53:39;;;;;;;13.93;7.80;;;;;;;9.22;79.82;101863.91;4957426;28;20506;-77
2022/05/09 03:56:07;;;;;;;13.20;8.43;;;;;;;9.25;80.30;101858.44;4957596;28;20051;-79
2022/05/09 03:58:34;;;;;;;12.55;7.80;;;;;;;9.21;79.77;101856.19;4956801;28;20070;-78
2022/05/09 04:01:01;;;;;;;12.85;7.90;;;;;;;9.26;79.39;101854.88;4956420;28;20142;-78
2022/05/09 04:03:28;;;;;;;12.80;8.35;;;;;;;9.24;79.85;101856.78;4958535;28;20051;-78
2022/05/09 04:05:56;;;;;;;10.27;7.72;;;;;;;9.29;80.10;101853.81;4957443;28;20533;-78
2022/05/09 04:08:23;;;;;;;12.85;7.95;;;;;;;9.29;80.32;101848.59;4956804;28;20097;-79
2022/05/09 04:10:52;;;;;;;13.68;7.90;;;;;;;9.33;79.77;101855.25;4957195;28;20055;-79
2022/05/09 04:13:19;;;;;;;10.60;7.32;;;;;;;9.38;80.29;101858.34;4957213;28;20047;-78
2022/05/09 04:18:36;;;;;;;11.70;7.82;;;;;;;9.60;78.96;101853.09;4930082;28;20422;-78
2022/05/09 04:21:05;;;;;;;11.75;7.60;;;;;;;9.63;78.37;101852.03;4955675;28;20138;-78
2022/05/09 04:23:33;;;;;;;12.10;7.28;;;;;;;9.68;78.24;101849.88;4956076;28;20055;-78
2022/05/09 04:26:00;;;;;;;9.48;7.32;;;;;;;9.78;77.99;101863.06;4955673;28;20419;-77
2022/05/09 04:28:27;;;;;;;12.13;7.70;;;;;;;9.87;77.66;101851.88;4956094;28;20047;-77
2022/05/09 04:30:54;;;;;;;11.68;7.38;;;;;;;10.06;77.13;101865.13;4956143;28;20138;-77
2022/05/09 04:33:21;;;;;;;9.90;7.57;;;;;;;10.15;76.74;101861.78;4955962;28;20490;-80
2022/05/09 04:35:48;;;;;;;9.90;7.38;;;;;;;10.33;76.39;101862.13;4958610;28;20062;-78
2022/05/09 04:38:21;;;;;;;12.35;7.70;;;;;;;10.35;75.91;101859.38;4957269;28;20138;-78
2022/05/09 04:40:51;;;;;;;11.60;7.47;;;;;;;10.26;76.35;101866.19;4957922;28;20158;-78
2022/05/09 04:43:19;;;;;;;12.00;7.43;;;;;;;10.33;76.26;101862.13;4958534;28;20482;-78
2022/05/09 04:45:45;;;;;;;14.73;8.02;;;;;;;10.25;76.89;101865.38;4960984;28;20051;-78
2022/05/09 04:48:12;;;;;;;10.82;7.45;;;;;;;10.29;76.31;101871.19;4958930;28;20137;-80
2022/05/09 04:50:38;;;;;;;12.00;7.60;;;;;;;10.47;75.72;101866.22;4959766;28;20059;-80
2022/05/09 04:53:06;;;;;;;13.50;7.43;;;;;;;10.85;73.92;101863.91;4957872;28;20094;-79
2022/05/09 04:55:33;;;;;;;12.68;7.30;;;;;;;10.97;74.09;101865.47;4960749;28;20102;-78
2022/05/09 04:58:00;;;;;;;11.35;7.25;;;;;;;11.16;72.71;101859.53;4961395;28;20577;-77
2022/05/09 05:00:28;;;;;;;14.75;7.43;;;;;;;11.54;71.18;101866.72;4958326;28;20058;-78
2022/05/09 05:02:56;;;;;;;13.00;7.47;;;;;;;11.95;70.76;101870.19;4959494;28;20529;-80
2022/05/09 05:05:23;;;;;;;10.38;7.15;;;;;;;12.25;69.34;101872.75;4968190;28;20051;-78
2022/05/09 05:07:50;;;;;;;9.98;7.00;;;;;;;12.34;69.15;101871.06;4961677;28;20094;-78
2022/05/09 05:10:18;;;;;;;11.18;6.95;;;;;;;12.87;67.35;101868.84;4959561;28;20115;-82
2022/05/09 05:12:46;;;;;;;13.52;6.70;;;;;;;13.19;66.57;101858.03;4958192;28;20098;-78
2022/05/09 05:15:13;;;;;;;10.02;7.18;;;;;;;13.07;66.49;101863.56;4957851;28;20078;-79
2022/05/09 05:17:40;;;;;;;10.35;7.18;;;;;;;13.12;65.41;101861.34;4957422;28;20502;-81
2022/05/09 05:20:10;;;;;;;13.93;7.10;;;;;;;13.38;65.45;101862.38;4956946;28;20133;-80
2022/05/09 05:22:38;;;;;;;17.52;7.47;;;;;;;13.81;64.41;101868.81;4957925;28;20155;-80
2022/05/09 05:25:06;;;;;;;19.20;7.53;;;;;;;14.42;62.63;101873.41;4956512;28;20142;-79
2022/05/09 05:27:33;;;;;;;26.25;7.65;;;;;;;14.97;60.44;101868.75;4955382;28;20130;-78
2022/05/09 05:30:01;;;;;;;11.98;6.90;;;;;;;15.49;58.52;101874.81;4955455;28;20058;-79
2022/05/09 05:32:31;;;;;;;11.88;6.82;;;;;;;15.58;57.50;101879.19;4957868;28;20534;-79
2022/05/09 05:34:57;;;;;;;10.70;6.57;;;;;;;15.91;56.24;101876.66;4957709;28;20063;-79
2022/05/09 05:37:24;;;;;;;9.95;6.43;;;;;;;16.90;54.42;101879.25;4956937;28;20085;-78
2022/05/09 05:39:51;;;;;;;17.85;6.60;;;;;;;16.63;54.40;101880.38;4957107;28;20061;-79
2022/05/09 05:42:19;;;;;;;16.13;6.57;;;;;;;16.72;54.43;101870.66;4966158;28;20062;-77
2022/05/09 05:44:48;;;;;;;20.20;7.15;;;;;;;17.14;53.91;101873.09;4973161;28;20062;-77
2022/05/09 05:47:18;;;;;;;15.18;6.55;;;;;;;17.14;53.34;101873.09;4972826;28;20062;-78
2022/05/09 05:49:45;;;;;;;19.20;7.25;;;;;;;17.57;51.69;101864.66;4972682;28;20111;-76
2022/05/09 05:52:12;;;;;;;14.85;7.15;;;;;;;17.63;51.92;101867.63;4966004;28;20182;-78
2022/05/09 05:54:41;;;;;;;20.30;7.00;;;;;;;18.02;51.29;101873.72;4959472;28;20115;-77
2022/05/09 05:57:16;;;;;;;10.82;6.40;;;;;;;17.55;52.65;101874.59;4959410;28;20122;-78
2022/05/09 05:59:48;;;;;;;18.15;7.88;;;;;;;18.57;49.57;101881.47;4958120;28;20090;-77
2022/05/09 06:02:16;;;;;;;13.67;7.70;;;;;;;18.35;49.57;101882.31;4957892;28;20051;-78
2022/05/09 06:04:42;;;;;;;9.20;6.80;;;;;;;18.69;49.33;101881.91;4957608;28;20051;-76
2022/05/09 06:07:10;;;;;;;10.63;7.03;;;;;;;18.60;50.19;101877.66;4957305;28;20146;-77
2022/05/09 06:09:37;;;;;;;9.00;6.88;;;;;;;19.47;48.35;101881.41;4958660;28;20110;-78
2022/05/09 06:12:04;;;;;;;10.45;7.40;;;;;;;18.86;49.22;101877.28;4971081;28;20114;-77
2022/05/09 06:14:31;;;;;;;10.27;7.28;;;;;;;18.37;50.94;101877.66;4967134;28;20070;-78
2022/05/09 06:16:58;;;;;;;8.85;6.47;;;;;;;18.03;51.53;101883.34;4963319;28;20085;-78
2022/05/09 06:19:26;;;;;;;12.55;7.15;;;;;;;18.54;50.96;101884.47;4960973;28;20057;-78
2022/05/09 06:21:52;;;;;;;15.40;7.20;;;;;;;18.61;51.40;101889.91;4959654;28;20059;-76
2022/05/09 06:24:19;;;;;;;12.43;7.03;;;;;;;18.85;50.11;101891.56;4959372;28;20051;-78
2022/05/09 06:26:46;;;;;;;10.68;7.03;;;;;;;19.64;48.92;101891.88;4958381;28;20518;-77
2022/05/09 06:29:13;;;;;;;10.77;6.55;;;;;;;19.73;48.65;101890.78;4958567;28;20138;-77
2022/05/09 06:31:39;;;;;;;11.07;6.90;;;;;;;19.74;48.09;101895.09;4960662;28;20057;-77
2022/05/09 06:34:11;;;;;;;13.85;6.97;;;;;;;19.72;49.24;101894.44;4961647;28;20055;-78
2022/05/09 06:36:40;;;;;;;12.75;6.68;;;;;;;19.60;49.12;101891.44;4962298;28;20150;-77
2022/05/09 06:39:08;;;;;;;8.02;6.10;;;;;;;19.06;50.90;101896.97;4960472;28;20395;-77
2022/05/09 06:41:36;;;;;;;13.13;7.13;;;;;;;18.68;50.62;101898.81;4962780;28;20094;-77
2022/05/09 06:44:02;;;;;;;9.70;6.15;;;;;;;18.23;50.93;101889.84;4962271;28;20154;-77
2022/05/09 06:46:29;;;;;;;10.75;6.05;;;;;;;19.05;49.66;101886.53;4961825;28;20115;-78
2022/05/09 06:48:55;;;;;;;14.45;5.72;;;;;;;19.01;49.73;101880.75;4964133;28;20134;-78
2022/05/09 06:51:22;;;;;;;10.52;6.15;;;;;;;19.22;49.00;101882.72;4965392;28;20138;-79
2022/05/09 06:53:53;;;;;;;10.48;6.60;;;;;;;19.51;49.34;101882.72;4981026;28;20039;-79
2022/05/09 06:56:19;;;;;;;15.20;6.00;;;;;;;20.03;47.50;101886.22;4980100;28;20110;-79
2022/05/09 06:58:46;;;;;;;14.70;6.35;;;;;;;18.97;49.57;101878.66;4980360;28;20055;-78
2022/05/09 07:04:03;;;;;;;10.60;6.10;;;;;;;20.87;45.99;101880.06;4959792;29;20048;-80
2022/05/09 07:07:26;;;;;;;12.35;6.20;;;;;;;21.37;44.55;101883.47;4973018;28;20062;-78
2022/05/09 07:10:00;;;;;;;9.30;5.60;;;;;;;20.78;44.55;101867.94;4956736;29;20055;-78
2022/05/09 07:12:27;;;;;;;10.05;6.00;;;;;;;20.65;45.31;101877.66;4960679;28;20134;-80
2022/05/09 07:14:54;;;;;;;12.10;6.18;;;;;;;21.43;44.97;101873.88;4962016;28;20094;-80
2022/05/09 07:17:21;;;;;;;8.20;5.43;;;;;;;20.42;45.15;101877.84;4960530;28;20074;-81
2022/05/09 07:19:47;;;;;;;13.38;5.47;;;;;;;21.58;43.26;101879.91;4958867;28;20542;-80
2022/05/09 07:22:14;;;;;;;12.93;5.68;;;;;;;21.81;43.16;101871.56;4949171;29;20455;-80
2022/05/09 07:24:41;;;;;;;11.52;5.57;;;;;;;21.04;44.04;101875.28;4961690;28;20103;-80
2022/05/09 07:27:10;;;;;;;10.82;5.57;;;;;;;21.09;43.98;101872.03;4961024;28;20050;-80
2022/05/09 07:29:37;;;;;;;10.32;5.28;;;;;;;20.70;44.44;101873.41;4962181;28;20596;-81
2022/05/09 07:32:04;;;;;;;9.23;5.13;;;;;;;20.79;45.26;101868.75;4967284;28;20114;-80
2022/05/09 07:34:31;;;;;;;8.23;5.10;;;;;;;21.55;44.08;101861.66;4960498;28;20154;-81
2022/05/09 07:36:58;;;;;;;56.03;13.90;;;;;;;21.76;43.15;101866.03;4966198;28;20119;-79
2022/05/09 07:39:24;;;;;;;23.08;7.35;;;;;;;20.30;44.65;101872.19;4958695;28;20079;-80
2022/05/09 07:41:51;;;;;;;11.55;4.93;;;;;;;20.79;43.36;101861.59;4962332;28;20091;-80
2022/05/09 07:44:19;;;;;;;8.65;5.55;;;;;;;21.20;43.63;101863.50;4966448;28;20537;-81
2022/05/09 07:46:45;;;;;;;7.25;4.85;;;;;;;21.00;43.46;101857.22;4961428;28;20081;-81
2022/05/09 07:49:12;;;;;;;12.93;6.15;;;;;;;22.42;42.28;101860.84;4960767;28;20236;-79
2022/05/09 07:51:39;;;;;;;9.95;4.88;;;;;;;23.11;39.83;101855.09;4960699;28;20122;-80
2022/05/09 07:54:07;;;;;;;9.18;4.63;;;;;;;23.93;38.93;101861.56;4960149;28;20078;-81
2022/05/09 07:56:33;;;;;;;11.57;5.20;;;;;;;22.65;40.50;101868.47;4960726;28;20055;-81
2022/05/09 07:59:02;;;;;;;11.38;5.05;;;;;;;22.71;41.36;101864.94;4959117;28;20122;-79
2022/05/09 08:01:30;;;;;;;8.80;4.50;;;;;;;21.89;41.72;101866.06;4959188;28;20146;-80
2022/05/09 08:03:58;;;;;;;7.78;5.03;;;;;;;22.81;41.57;101863.53;4959078;28;20293;-80
2022/05/09 08:06:25;;;;;;;9.55;5.35;;;;;;;22.13;41.45;101856.75;4959269;28;20074;-79
2022/05/09 08:08:52;;;;;;;16.20;5.68;;;;;;;21.49;42.68;101857.94;4959822;28;20079;-80
2022/05/09 08:11:20;;;;;;;11.50;5.68;;;;;;;21.93;42.60;101858.50;4960368;28;20138;-78
2022/05/09 08:13:48;;;;;;;11.43;5.32;;;;;;;22.56;40.93;101870.50;4961667;28;20054;-80
2022/05/09 08:16:16;;;;;;;9.38;5.70;;;;;;;20.80;45.51;101860.56;4968632;28;20066;-80
2022/05/09 08:18:44;;;;;;;9.88;5.88;;;;;;;21.46;43.68;101853.00;4964697;28;20134;-80
2022/05/09 08:21:12;;;;;;;7.57;5.20;;;;;;;21.29;44.31;101856.19;4962339;28;20133;-80
2022/05/09 08:23:39;;;;;;;9.82;5.25;;;;;;;21.30;44.39;101852.50;4963753;28;20062;-80
2022/05/09 08:26:07;;;;;;;13.77;5.80;;;;;;;22.45;42.58;101857.78;4962579;28;20279;-81
2022/05/09 08:28:34;;;;;;;8.70;5.05;;;;;;;22.29;42.99;101859.00;4960618;28;20047;-81
2022/05/09 08:31:03;;;;;;;9.52;6.32;;;;;;;22.59;42.08;101859.44;4958643;28;20529;-80
2022/05/09 08:33:30;;;;;;;11.60;6.13;;;;;;;21.65;43.58;101862.09;4959045;28;20496;-79
2022/05/09 08:35:58;;;;;;;9.52;5.43;;;;;;;20.87;45.59;101864.09;4959943;28;20520;-80
2022/05/09 08:38:25;;;;;;;8.32;5.45;;;;;;;21.60;44.03;101850.41;4990080;23;20062;-81
2022/05/09 08:41:05;;;;;;;8.95;5.63;;;;;;;22.73;42.34;101844.22;4976828;28;20042;-81
2022/05/09 08:43:51;;;;;;;7.70;5.20;;;;;;;21.87;44.24;101852.13;4975165;28;20051;-82
2022/05/09 08:46:28;;;;;;;8.20;6.47;;;;;;;22.70;43.06;101848.13;4974571;28;20168;-80
2022/05/09 08:49:11;;;;;;;9.90;5.55;;;;;;;22.39;43.27;101842.59;4959651;28;20083;-80
2022/05/09 08:51:48;;;;;;;12.45;6.00;;;;;;;22.00;44.21;101843.34;4955752;29;20913;-81
2022/05/09 08:54:21;;;;;;;10.15;5.70;;;;;;;23.00;43.72;101837.03;4956728;29;20050;-80
2022/05/09 08:56:51;;;;;;;11.40;5.70;;;;;;;22.79;43.11;101838.91;4955710;29;20110;-81
2022/05/09 08:59:28;;;;;;;9.10;5.47;;;;;;;21.83;44.96;101840.22;4957930;28;20047;-81
2022/05/09 09:02:03;;;;;;;10.98;6.47;;;;;;;22.47;45.40;101834.41;4957931;29;20079;-81
2022/05/09 09:04:33;;;;;;;9.40;5.80;;;;;;;23.13;42.70;101842.34;4954398;29;20171;-77
2022/05/09 09:07:13;;;;;;;11.57;6.22;;;;;;;23.38;42.85;101837.13;4957263;28;20057;-79
2022/05/09 09:09:55;;;;;;;10.40;5.70;;;;;;;23.11;43.49;101833.72;4954932;29;20055;-81
2022/05/09 09:12:34;;;;;;;11.50;6.25;;;;;;;23.40;41.93;101837.72;4950650;29;20051;-81
2022/05/09 09:15:08;;;;;;;12.50;6.50;;;;;;;22.93;42.69;101834.38;4955014;29;20115;-80
2022/05/09 09:18:00;;;;;;;11.32;6.68;;;;;;;23.62;41.46;101827.59;4960223;28;20114;-78
2022/05/09 09:20:33;;;;;;;11.00;6.13;;;;;;;23.41;43.04;101831.34;4957489;28;20078;-80
2022/05/09 09:23:32;;;;;;;12.20;6.80;;;;;;;22.27;45.16;101839.72;4954983;28;20309;-81
2022/05/09 09:26:03;;;;;;;10.68;6.60;;;;;;;22.41;45.25;101830.69;4950658;29;20090;-79
2022/05/09 09:28:46;;;;;;;10.38;6.43;;;;;;;22.24;44.98;101825.97;4952255;28;20130;-80
2022/05/09 09:31:17;;;;;;;10.35;6.43;;;;;;;22.71;44.88;101825.75;4946687;29;20118;-80
2022/05/09 09:33:55;;;;;;;8.57;6.25;;;;;;;23.85;43.60;101825.19;4955381;29;20228;-80
2022/05/09 09:36:26;;;;;;;12.32;6.93;;;;;;;22.57;44.10;101829.47;4954103;28;20119;-80
2022/05/09 09:39:02;;;;;;;12.60;7.63;;;;;;;22.39;44.91;101821.25;4956378;28;20071;-80
2022/05/09 09:41:31;;;;;;;11.95;6.60;;;;;;;22.34;45.25;101821.88;4958697;28;20115;-81
2022/05/09 09:44:05;;;;;;;9.77;6.07;;;;;;;22.49;45.45;101817.16;4957839;28;20054;-80
2022/05/09 09:46:32;;;;;;;15.13;6.13;;;;;;;23.41;44.66;101813.47;4958884;28;20511;-80
2022/05/09 09:49:07;;;;;;;8.15;5.80;;;;;;;23.13;43.61;101812.97;4957297;28;20079;-80
2022/05/09 09:51:45;;;;;;;11.02;6.68;;;;;;;23.32;45.04;101812.06;4957578;28;20504;-79
2022/05/09 09:54:13;;;;;;;12.23;6.50;;;;;;;23.45;43.90;101816.56;4956866;28;20130;-80
2022/05/09 09:56:40;;;;;;;11.57;6.35;;;;;;;23.06;43.93;101813.00;4956980;28;20490;-80
2022/05/09 09:59:21;;;;;;;9.88;6.60;;;;;;;23.58;44.01;101813.84;4956397;28;20043;-78
2022/05/09 10:02:06;;;;;;;19.17;6.82;;;;;;;23.22;44.16;101806.34;4956088;28;20091;-81
2022/05/09 10:04:33;;;;;;;11.32;6.57;;;;;;;23.41;43.94;101799.31;4955318;28;20137;-78
2022/05/09 10:07:03;;;;;;;17.33;6.97;;;;;;;23.16;43.48;101791.19;4955604;28;20478;-80
2022/05/09 10:09:40;;;;;;;14.88;7.53;;;;;;;23.22;44.84;101793.00;4955809;28;20043;-80
2022/05/09 10:12:20;;;;;;;11.35;6.78;;;;;;;22.43;46.09;101791.31;4956674;28;20055;-80
2022/05/09 10:14:49;;;;;;;10.90;7.15;;;;;;;23.16;44.80;101781.31;4948757;28;20114;-79
2022/05/09 10:17:17;;;;;;;9.75;6.78;;;;;;;;;;4955170;28;20123;-79
2022/05/09 10:19:44;;;;;;;11.13;7.70;;;;;;;23.56;43.48;101791.06;4951609;28;20462;-79
2022/05/09 10:25:08;;;;;;;12.75;7.47;;;;;;;23.42;43.22;101784.91;4954914;29;20576;-79
2022/05/09 10:27:36;;;;;;;8.32;6.53;;;;;;;23.25;44.19;101781.91;4954495;28;20047;-80
2022/05/09 10:30:08;;;;;;;11.23;6.88;;;;;;;23.56;44.36;101777.69;4955684;28;20083;-80
2022/05/09 10:32:42;;;;;;;9.57;6.88;;;;;;;23.22;44.49;101779.66;4956779;28;20490;-80
2022/05/09 10:35:17;;;;;;;10.45;7.95;;;;;;;23.00;45.10;101767.63;4956499;28;20187;-80
2022/05/09 10:37:52;;;;;;;13.40;6.88;;;;;;;23.44;45.25;101766.81;4956150;28;20054;-80
2022/05/09 10:40:26;;;;;;;13.05;8.40;;;;;;;23.73;42.94;101763.59;4957183;28;20350;-79
2022/05/09 10:43:02;;;;;;;11.05;8.32;;;;;;;23.74;42.41;101772.44;4957362;28;20059;-80
2022/05/09 10:45:38;;;;;;;10.27;7.25;;;;;;;23.30;44.13;101760.72;4957287;28;20432;-80
2022/05/09 10:48:11;;;;;;;12.30;6.68;;;;;;;24.32;42.95;101758.84;4956617;28;20403;-80
2022/05/09 10:50:43;;;;;;;9.20;7.25;;;;;;;24.62;41.50;101754.44;4956085;28;20056;-79
2022/05/09 10:53:15;;;;;;;9.73;7.38;;;;;;;24.22;42.49;101750.47;4957392;28;20090;-78
2022/05/09 10:55:47;;;;;;;13.70;8.30;;;;;;;24.60;42.01;101751.16;4956845;28;20115;-80
2022/05/09 10:58:19;;;;;;;;;;;;;;;24.22;42.04;101750.47;4957762;28;20142;-80
2022/05/09 11:00:51;;;;;;;11.65;7.60;;;;;;;24.17;42.36;101738.56;4959168;28;19928;-79
2022/05/09 11:03:24;;;;;;;16.13;7.85;;;;;;;24.33;42.97;101744.44;4957191;28;20146;-78
2022/05/09 11:06:13;;;;;;;11.48;7.47;;;;;;;24.98;41.90;101740.28;4957061;28;20179;-81
2022/05/09 11:08:58;;;;;;;9.13;6.90;;;;;;;25.15;40.11;101735.09;4958904;28;20374;-80
2022/05/09 11:11:35;;;;;;;11.63;7.40;;;;;;;24.81;39.67;101726.63;4959275;28;20130;-80
2022/05/09 11:14:13;;;;;;;9.10;7.75;;;;;;;24.74;40.29;101715.19;4957613;28;20110;-81
2022/05/09 11:16:58;;;;;;;10.32;7.40;;;;;;;24.40;40.98;101718.44;4958527;28;20090;-81
2022/05/09 11:19:39;;;;;;;10.50;8.18;;;;;;;24.12;41.39;101726.91;4958542;28;20159;-80
2022/05/09 11:22:17;;;;;;;8.75;7.85;;;;;;;24.13;41.21;101721.31;4958475;28;20054;-80
2022/05/09 11:24:59;;;;;;;10.90;7.60;;;;;;;24.45;41.25;101705.22;4958411;28;20130;-80
2022/05/09 11:27:50;;;;;;;13.67;8.20;;;;;;;24.24;40.77;101710.94;4958872;28;20404;-81
2022/05/09 11:30:26;;;;;;;12.18;7.25;;;;;;;24.71;39.21;101704.09;4959212;28;20153;-81
2022/05/09 11:33:06;;;;;;;10.80;8.02;;;;;;;24.34;39.57;101692.59;4958818;28;20141;-80
2022/05/09 11:35:35;;;;;;;9.18;6.97;;;;;;;24.48;40.91;101699.44;4953988;28;20525;-80
2022/05/09 11:38:40;;;;;;;9.57;6.85;;;;;;;24.63;38.78;101697.19;4959119;28;20059;-79
2022/05/09 11:41:20;;;;;;;9.07;6.78;;;;;;;24.96;37.96;101696.03;4951344;28;20051;-81
2022/05/09 11:44:05;;;;;;;9.93;7.63;;;;;;;24.30;38.44;101694.06;4959273;28;20074;-81
2022/05/09 11:46:41;;;;;;;8.98;7.20;;;;;;;24.82;37.86;101687.31;4959693;28;20054;-81
2022/05/09 11:49:25;;;;;;;10.70;7.07;;;;;;;25.25;37.94;101683.69;4959140;28;20375;-82
2022/05/09 11:51:54;;;;;;;10.90;6.70;;;;;;;25.71;38.35;101683.81;4959561;28;20062;-81
2022/05/09 11:54:24;;;;;;;8.10;7.20;;;;;;;25.77;36.77;101672.19;4959082;28;20130;-80
2022/05/09 11:56:55;;;;;;;9.73;7.90;;;;;;;25.83;36.65;101681.16;4960279;28;20051;-79